Time;durP1;ratioP1;P1;durP2;ratioP2;P2;SDS_P1;SDS_P2;PMS_P1;PMS_P2;Temp;Humidity;BMP_temperature;BMP_pressure;BME280_temperature;BME280_humidity;BME280_pressure;Samples;Min_cycle;Max_cycle;Signal;HPM_P1;HPM_P2
2023/05/26 00:00:29;;;;;;;70.63;37.10;;;11.90;99.90;;;;;;5055812;27;20226;-70
2023/05/26 00:03:16;;;;;;;62.63;35.80;;;12.00;99.90;;;;;;5073864;27;20208;-71
2023/05/26 00:06:04;;;;;;;62.20;35.70;;;12.00;99.90;;;;;;5064786;27;20207;-70
2023/05/26 00:08:51;;;;;;;77.73;37.10;;;12.00;99.90;;;;;;5058443;27;20214;-71
2023/05/26 00:11:38;;;;;;;71.40;37.60;;;12.00;99.90;;;;;;5049549;27;20212;-71
2023/05/26 00:14:25;;;;;;;75.63;37.20;;;11.80;99.90;;;;;;5057370;27;20194;-71
2023/05/26 00:17:16;;;;;;;75.97;38.30;;;11.80;99.90;;;;;;5054680;27;20223;-71
2023/05/26 00:20:04;;;;;;;76.13;40.70;;;11.80;99.90;;;;;;5054033;27;20250;-71
2023/05/26 00:22:51;;;;;;;76.60;41.50;;;11.80;99.90;;;;;;5067963;27;20196;-71
2023/05/26 00:25:38;;;;;;;75.70;41.83;;;11.70;99.90;;;;;;5053693;27;20634;-71
2023/05/26 00:28:26;;;;;;;80.67;43.40;;;11.70;99.90;;;;;;5061352;27;20678;-71
2023/05/26 00:31:13;;;;;;;76.87;41.83;;;11.70;99.90;;;;;;5095374;27;20544;-70
2023/05/26 00:34:02;;;;;;;87.13;44.67;;;11.70;99.90;;;;;;5085598;27;20572;-71
2023/05/26 00:36:49;;;;;;;82.67;42.10;;;11.80;99.90;;;;;;5045167;27;20197;-70
2023/05/26 00:39:36;;;;;;;79.87;42.33;;;11.80;99.90;;;;;;5061087;27;20351;-71
2023/05/26 00:42:23;;;;;;;75.23;43.13;;;11.80;99.90;;;;;;5066250;27;20204;-71
2023/05/26 00:45:11;;;;;;;79.87;43.03;;;11.80;99.90;;;;;;5074081;27;20280;-71
2023/05/26 00:47:58;;;;;;;79.83;42.50;;;11.80;99.90;;;;;;5051713;27;20353;-70
2023/05/26 00:50:47;;;;;;;85.80;44.47;;;11.80;99.90;;;;;;5053861;28;20201;-71
2023/05/26 00:53:35;;;;;;;83.50;44.73;;;11.70;99.90;;;;;;5040895;28;20212;-71
2023/05/26 00:56:22;;;;;;;78.17;42.93;;;11.80;99.90;;;;;;5054766;28;20252;-71
2023/05/26 00:59:11;;;;;;;80.20;43.47;;;11.80;99.90;;;;;;5047682;27;20782;-71
2023/05/26 01:01:58;;;;;;;85.83;45.30;;;11.80;99.90;;;;;;5049808;28;21687;-71
2023/05/26 01:04:45;;;;;;;87.10;44.17;;;11.80;99.90;;;;;;5053718;27;20284;-70
2023/05/26 01:07:35;;;;;;;89.20;43.17;;;11.80;99.90;;;;;;5047019;28;20662;-70
2023/05/26 01:10:24;;;;;;;76.70;43.17;;;11.80;99.90;;;;;;5047107;28;20213;-70
2023/05/26 01:13:13;;;;;;;82.07;43.73;;;11.80;99.90;;;;;;5051005;27;20199;-71
2023/05/26 01:16:03;;;;;;;88.60;46.77;;;11.80;99.90;;;;;;5056347;27;20317;-70
2023/05/26 01:18:54;;;;;;;82.47;45.03;;;11.80;99.90;;;;;;5061103;27;20204;-70
2023/05/26 01:21:43;;;;;;;85.27;45.77;;;11.80;99.90;;;;;;5079659;27;20200;-70
2023/05/26 01:24:36;;;;;;;88.80;44.37;;;11.80;99.90;;;;;;5061210;27;20370;-71
2023/05/26 01:27:31;;;;;;;80.87;42.63;;;11.80;99.90;;;;;;5056400;27;20208;-70
2023/05/26 01:30:20;;;;;;;91.33;44.57;;;11.80;99.90;;;;;;5062728;27;20221;-70
2023/05/26 01:33:08;;;;;;;77.20;43.67;;;11.80;99.90;;;;;;5053228;27;20217;-70
2023/05/26 01:35:55;;;;;;;78.40;43.67;;;11.90;99.90;;;;;;5064268;27;20233;-71
2023/05/26 01:38:42;;;;;;;82.90;44.70;;;11.80;99.90;;;;;;5078313;27;20324;-70
2023/05/26 01:41:32;;;;;;;80.83;44.43;;;11.90;99.90;;;;;;5069943;27;20193;-70
2023/05/26 01:44:22;;;;;;;85.27;44.83;;;11.90;99.90;;;;;;5054113;27;20297;-70
2023/05/26 01:47:10;;;;;;;81.57;43.30;;;11.90;99.90;;;;;;5057162;27;20381;-71
2023/05/26 01:49:57;;;;;;;76.57;42.23;;;11.90;99.90;;;;;;5059866;27;20228;-71
2023/05/26 01:52:45;;;;;;;75.83;41.07;;;11.90;99.90;;;;;;5064126;27;20288;-71
2023/05/26 01:55:32;;;;;;;74.40;41.17;;;11.90;99.90;;;;;;5059456;27;20190;-71
2023/05/26 01:58:19;;;;;;;72.27;41.13;;;11.90;99.90;;;;;;5076695;27;20216;-70
2023/05/26 02:01:07;;;;;;;79.27;42.63;;;11.90;99.90;;;;;;5092285;27;20247;-71
2023/05/26 02:03:56;;;;;;;76.37;42.70;;;11.90;99.90;;;;;;5070148;27;20349;-70
2023/05/26 02:06:43;;;;;;;75.77;41.80;;;11.80;99.90;;;;;;5064987;27;20286;-71
2023/05/26 02:09:30;;;;;;;73.67;41.33;;;11.80;99.90;;;;;;5061307;27;20283;-70
2023/05/26 02:12:17;;;;;;;89.57;44.83;;;11.80;99.90;;;;;;5057858;27;20198;-70
2023/05/26 02:15:05;;;;;;;75.80;40.17;;;11.70;99.90;;;;;;5060451;27;20219;-71
2023/05/26 02:17:54;;;;;;;74.17;40.13;;;11.70;99.90;;;;;;5071481;27;20394;-70
2023/05/26 02:20:43;;;;;;;66.83;37.33;;;11.50;99.90;;;;;;5059521;27;20198;-71
2023/05/26 02:23:30;;;;;;;65.73;37.70;;;11.50;99.90;;;;;;5064993;27;20211;-71
2023/05/26 02:26:18;;;;;;;68.57;37.13;;;11.50;99.90;;;;;;5052068;27;20723;-70
2023/05/26 02:29:05;;;;;;;74.40;37.53;;;11.40;99.90;;;;;;5065703;27;20220;-71
2023/05/26 02:31:53;;;;;;;67.93;38.37;;;11.40;99.90;;;;;;5059682;27;20596;-70
2023/05/26 02:34:40;;;;;;;66.90;37.23;;;11.30;99.90;;;;;;5082870;27;20224;-70
2023/05/26 02:37:28;;;;;;;67.80;36.17;;;11.20;99.90;;;;;;5058132;27;20205;-71
2023/05/26 02:40:16;;;;;;;67.60;37.37;;;11.10;99.90;;;;;;5051438;27;20214;-71
2023/05/26 02:43:03;;;;;;;60.00;34.40;;;11.10;99.90;;;;;;5076751;27;20252;-71
2023/05/26 02:45:51;;;;;;;67.63;38.60;;;11.00;99.90;;;;;;5057938;27;20212;-70
2023/05/26 02:48:38;;;;;;;71.27;37.53;;;11.00;99.90;;;;;;5051841;27;20242;-70
2023/05/26 02:51:25;;;;;;;67.63;38.07;;;10.90;99.90;;;;;;5059051;28;20204;-70
2023/05/26 02:54:14;;;;;;;65.27;37.37;;;10.80;99.90;;;;;;5051202;27;20216;-71
2023/05/26 02:57:01;;;;;;;69.47;37.77;;;10.70;99.90;;;;;;5052052;27;20212;-71
2023/05/26 02:59:48;;;;;;;72.37;39.60;;;10.70;99.90;;;;;;5047659;27;20307;-71
2023/05/26 03:02:36;;;;;;;71.53;39.33;;;10.60;99.90;;;;;;5058808;27;20291;-71
2023/05/26 03:05:23;;;;;;;71.90;38.83;;;10.60;99.90;;;;;;5054880;27;20233;-70
2023/05/26 03:08:10;;;;;;;72.47;40.53;;;10.50;99.90;;;;;;5055812;27;20229;-70
2023/05/26 03:10:59;;;;;;;80.80;43.23;;;10.50;99.90;;;;;;5050982;28;20224;-71
2023/05/26 03:13:46;;;;;;;73.27;38.53;;;10.50;99.90;;;;;;5052045;27;20213;-70
2023/05/26 03:16:33;;;;;;;71.47;37.37;;;10.40;99.90;;;;;;5054805;27;20213;-70
2023/05/26 03:19:20;;;;;;;74.87;39.73;;;10.30;99.90;;;;;;5058530;27;20201;-70
2023/05/26 03:22:08;;;;;;;76.27;40.20;;;10.40;99.90;;;;;;5055009;27;20203;-70
2023/05/26 03:24:55;;;;;;;93.07;46.07;;;10.40;99.90;;;;;;5069238;27;20320;-70
2023/05/26 03:27:43;;;;;;;90.87;46.17;;;10.60;99.90;;;;;;5052400;27;20219;-70
2023/05/26 03:30:31;;;;;;;96.63;45.57;;;10.60;99.90;;;;;;5050471;27;20363;-70
2023/05/26 03:33:18;;;;;;;91.80;45.27;;;10.60;99.90;;;;;;5062013;27;20198;-70
2023/05/26 03:36:06;;;;;;;74.43;39.53;;;10.60;99.90;;;;;;5060363;27;20216;-70
2023/05/26 03:38:53;;;;;;;73.57;39.67;;;10.60;99.90;;;;;;5059072;27;20206;-70
2023/05/26 03:41:40;;;;;;;80.70;41.40;;;10.60;99.90;;;;;;5072262;27;20271;-70
2023/05/26 03:44:29;;;;;;;83.10;43.07;;;10.70;99.90;;;;;;5067434;27;20206;-70
2023/05/26 03:47:16;;;;;;;87.67;44.77;;;10.80;99.90;;;;;;5053587;27;20204;-70
2023/05/26 03:50:04;;;;;;;88.63;44.10;;;10.90;99.90;;;;;;5087377;27;20231;-70
2023/05/26 03:52:51;;;;;;;80.20;41.00;;;11.00;99.90;;;;;;5083738;27;20284;-70
2023/05/26 03:55:38;;;;;;;88.57;44.80;;;11.20;99.90;;;;;;5092778;27;20213;-71
2023/05/26 03:58:25;;;;;;;91.27;43.70;;;11.40;99.90;;;;;;5055122;27;20280;-70
2023/05/26 04:01:15;;;;;;;101.00;47.93;;;11.50;99.90;;;;;;5053810;27;20676;-71
2023/05/26 04:04:03;;;;;;;87.53;44.73;;;11.60;99.90;;;;;;5055779;27;20297;-70
2023/05/26 04:06:50;;;;;;;86.40;44.27;;;11.70;99.90;;;;;;5090458;27;20215;-70
2023/05/26 04:09:37;;;;;;;102.90;49.47;;;11.80;99.90;;;;;;5078920;27;20724;-70
2023/05/26 04:12:24;;;;;;;99.20;47.60;;;11.80;99.90;;;;;;5095482;27;20278;-70
2023/05/26 04:15:12;;;;;;;97.20;47.33;;;11.90;99.90;;;;;;5057662;27;20397;-70
2023/05/26 04:18:00;;;;;;;88.17;46.20;;;12.00;99.90;;;;;;5050471;27;20228;-70
2023/05/26 04:20:48;;;;;;;93.73;46.40;;;12.10;99.90;;;;;;5057728;27;20192;-70
2023/05/26 04:23:35;;;;;;;100.00;48.40;;;12.20;99.90;;;;;;5075260;27;20224;-70
2023/05/26 04:26:24;;;;;;;101.60;47.07;;;12.30;99.90;;;;;;5057445;27;20604;-70
2023/05/26 04:29:11;;;;;;;94.17;45.60;;;12.40;99.90;;;;;;5066400;27;20206;-70
2023/05/26 04:31:59;;;;;;;102.47;46.73;;;12.50;99.90;;;;;;5091365;27;20205;-70
2023/05/26 04:34:48;;;;;;;87.53;44.90;;;12.50;99.90;;;;;;5053975;27;20211;-70
2023/05/26 04:37:35;;;;;;;93.80;45.67;;;12.60;99.90;;;;;;5052950;27;20197;-70
2023/05/26 04:40:23;;;;;;;90.90;43.47;;;12.70;99.90;;;;;;5048739;27;20200;-70
2023/05/26 04:43:10;;;;;;;82.67;43.73;;;12.80;99.90;;;;;;5068073;27;20195;-70
2023/05/26 04:45:57;;;;;;;82.63;44.23;;;12.80;99.90;;;;;;5071975;27;20216;-71
2023/05/26 04:48:45;;;;;;;90.10;44.57;;;12.90;99.90;;;;;;5061855;27;20200;-70
2023/05/26 04:51:35;;;;;;;82.93;43.80;;;12.80;99.90;;;;;;5038532;28;20206;-70
2023/05/26 04:54:22;;;;;;;88.07;44.20;;;12.90;99.90;;;;;;5047014;28;20205;-71
2023/05/26 04:57:09;;;;;;;84.10;44.23;;;12.90;99.90;;;;;;5045032;27;20682;-70
2023/05/26 04:59:56;;;;;;;81.63;43.90;;;13.00;99.90;;;;;;5047097;28;20297;-70
2023/05/26 05:02:44;;;;;;;83.13;43.53;;;13.20;99.90;;;;;;5045697;28;20203;-70
2023/05/26 05:05:31;;;;;;;82.10;44.10;;;13.20;99.90;;;;;;5047625;27;20207;-71
2023/05/26 05:08:20;;;;;;;95.40;46.20;;;13.10;99.90;;;;;;5049308;27;20582;-71
2023/05/26 05:11:07;;;;;;;84.77;45.23;;;13.10;99.90;;;;;;5050672;27;20226;-70
2023/05/26 05:13:55;;;;;;;85.17;45.80;;;13.20;99.90;;;;;;5052710;28;20201;-70
2023/05/26 05:16:42;;;;;;;89.00;45.27;;;13.40;99.90;;;;;;5045896;27;20228;-71
2023/05/26 05:19:29;;;;;;;86.63;44.43;;;13.50;99.90;;;;;;5054826;27;20278;-71
2023/05/26 05:22:17;;;;;;;81.90;43.67;;;13.70;99.90;;;;;;5071296;27;20264;-70
2023/05/26 05:25:06;;;;;;;77.60;43.80;;;13.90;99.90;;;;;;5062851;27;20244;-71
2023/05/26 05:27:54;;;;;;;78.43;41.57;;;14.00;99.90;;;;;;5046361;27;20667;-71
2023/05/26 05:30:41;;;;;;;81.87;43.70;;;14.20;99.90;;;;;;5054425;27;20220;-71
2023/05/26 05:33:28;;;;;;;72.33;41.00;;;14.20;99.90;;;;;;5071019;27;20311;-71
2023/05/26 05:36:15;;;;;;;67.27;38.20;;;14.30;99.90;;;;;;5050978;27;20220;-70
2023/05/26 05:39:03;;;;;;;75.70;41.67;;;14.40;99.90;;;;;;5082853;27;20212;-71
2023/05/26 05:41:51;;;;;;;75.87;40.03;;;14.40;99.90;;;;;;5051435;27;20632;-72
2023/05/26 05:44:38;;;;;;;73.20;39.90;;;14.50;99.90;;;;;;5092508;27;20306;-70
2023/05/26 05:47:25;;;;;;;70.20;38.90;;;14.40;99.90;;;;;;5108924;27;20278;-71
2023/05/26 05:50:13;;;;;;;66.73;37.90;;;14.40;99.90;;;;;;5118209;27;20227;-73
2023/05/26 05:53:00;;;;;;;61.47;35.37;;;14.50;99.90;;;;;;5072701;27;20245;-72
2023/05/26 05:55:47;;;;;;;67.17;33.83;;;14.50;99.90;;;;;;5052657;27;20341;-72
2023/05/26 05:58:36;;;;;;;60.80;34.37;;;14.50;99.90;;;;;;5051199;27;20212;-72
2023/05/26 06:01:23;;;;;;;62.60;35.00;;;14.40;99.90;;;;;;5065880;27;20212;-72
2023/05/26 06:04:10;;;;;;;59.77;35.30;;;14.40;99.90;;;;;;5066886;27;20690;-73
2023/05/26 06:06:58;;;;;;;60.63;35.27;;;14.40;99.90;;;;;;5054331;27;20204;-73
2023/05/26 06:09:45;;;;;;;62.10;33.53;;;14.20;99.90;;;;;;5050048;28;20719;-72
2023/05/26 06:12:32;;;;;;;58.63;33.53;;;14.30;99.90;;;;;;5051814;27;20201;-72
2023/05/26 06:15:21;;;;;;;62.27;33.47;;;14.30;99.90;;;;;;5060010;27;20318;-73
2023/05/26 06:18:08;;;;;;;59.30;33.87;;;14.40;99.90;;;;;;5052769;27;20246;-73
2023/05/26 06:20:55;;;;;;;68.80;33.97;;;14.50;99.90;;;;;;5079749;27;20207;-73
2023/05/26 06:23:42;;;;;;;57.47;34.03;;;14.30;99.90;;;;;;5069736;27;20288;-73
2023/05/26 06:26:30;;;;;;;59.83;33.27;;;14.30;99.90;;;;;;5054732;27;20237;-72
2023/05/26 06:29:17;;;;;;;58.83;32.40;;;14.40;99.90;;;;;;5094019;27;20229;-72
2023/05/26 06:32:06;;;;;;;56.40;32.10;;;14.40;99.90;;;;;;5046402;27;20217;-73
2023/05/26 06:34:53;;;;;;;57.87;31.37;;;14.40;99.90;;;;;;5071186;27;20725;-72
2023/05/26 06:37:40;;;;;;;53.43;30.67;;;14.40;99.90;;;;;;5064043;27;20207;-73
2023/05/26 06:40:28;;;;;;;54.27;29.57;;;14.40;99.90;;;;;;5067524;27;20237;-73
2023/05/26 06:43:15;;;;;;;52.70;30.60;;;14.40;99.90;;;;;;5057329;27;20660;-72
2023/05/26 06:46:02;;;;;;;55.73;30.47;;;14.30;99.90;;;;;;5088299;27;20269;-73
2023/05/26 06:48:50;;;;;;;54.10;29.80;;;14.40;99.90;;;;;;5063329;27;20652;-72
2023/05/26 06:51:38;;;;;;;48.23;29.07;;;14.60;99.90;;;;;;5066909;27;20231;-73
2023/05/26 06:54:25;;;;;;;51.47;28.97;;;14.70;99.90;;;;;;5062125;27;20553;-73
2023/05/26 06:57:13;;;;;;;47.10;28.17;;;14.50;99.90;;;;;;5059666;27;20211;-73
2023/05/26 07:00:00;;;;;;;43.63;26.77;;;14.90;99.90;;;;;;5048297;27;20812;-73
2023/05/26 07:02:47;;;;;;;44.90;26.40;;;15.10;99.90;;;;;;5054187;28;20406;-72
2023/05/26 07:05:36;;;;;;;46.80;27.00;;;15.20;99.90;;;;;;5052663;28;20212;-73
2023/05/26 07:08:23;;;;;;;43.20;24.97;;;15.50;99.90;;;;;;5050809;28;20276;-73
2023/05/26 07:11:10;;;;;;;44.57;25.30;;;15.90;99.90;;;;;;5052085;27;20228;-72
2023/05/26 07:13:58;;;;;;;37.83;24.40;;;16.20;99.90;;;;;;5051759;27;20216;-73
2023/05/26 07:16:45;;;;;;;50.50;25.00;;;16.40;99.90;;;;;;5049624;27;20672;-73
2023/05/26 07:19:32;;;;;;;40.33;24.13;;;16.40;99.90;;;;;;5051441;27;20264;-73
2023/05/26 07:22:21;;;;;;;39.37;22.30;;;16.50;99.90;;;;;;5053553;27;20570;-73
2023/05/26 07:25:09;;;;;;;37.00;22.43;;;16.70;99.90;;;;;;5061445;27;20597;-73
2023/05/26 07:27:56;;;;;;;36.87;20.70;;;17.00;99.90;;;;;;5057350;27;20216;-73
2023/05/26 07:30:43;;;;;;;35.90;22.33;;;17.30;99.90;;;;;;5043793;27;20246;-73
2023/05/26 07:33:30;;;;;;;36.70;21.57;;;17.40;99.90;;;;;;5050269;27;20204;-72
2023/05/26 07:36:18;;;;;;;36.10;21.70;;;17.50;99.90;;;;;;5052775;27;20739;-73
2023/05/26 07:39:06;;;;;;;38.80;23.27;;;17.60;99.90;;;;;;5054179;28;20450;-72
2023/05/26 07:41:53;;;;;;;38.90;23.33;;;17.50;99.90;;;;;;5059535;27;20209;-73
2023/05/26 07:44:41;;;;;;;45.53;24.20;;;17.50;99.90;;;;;;5058329;28;20227;-72
2023/05/26 07:47:31;;;;;;;44.77;23.13;;;17.60;99.90;;;;;;5046865;27;20224;-73
2023/05/26 07:50:18;;;;;;;42.00;23.03;;;17.80;99.90;;;;;;5045996;27;20211;-73
2023/05/26 07:53:05;;;;;;;39.50;23.03;;;17.90;99.90;;;;;;5048287;28;20232;-72
2023/05/26 07:55:54;;;;;;;36.33;22.30;;;17.50;99.90;;;;;;5046144;27;20205;-73
2023/05/26 07:58:41;;;;;;;35.47;22.13;;;17.60;99.90;;;;;;5048801;28;20240;-73
2023/05/26 08:01:28;;;;;;;43.10;23.93;;;18.00;99.90;;;;;;5052676;28;20674;-72
2023/05/26 08:04:15;;;;;;;40.33;23.37;;;18.10;99.90;;;;;;5040712;28;20211;-72
2023/05/26 08:07:03;;;;;;;38.77;23.77;;;17.90;99.90;;;;;;5049159;28;22136;-72
2023/05/26 08:09:52;;;;;;;39.93;24.83;;;17.90;99.90;;;;;;5053270;27;20285;-73
2023/05/26 08:12:40;;;;;;;44.43;25.33;;;17.60;99.90;;;;;;5061926;27;20698;-73
2023/05/26 08:15:27;;;;;;;45.57;27.40;;;17.50;99.90;;;;;;5062901;27;20571;-72
2023/05/26 08:18:15;;;;;;;46.20;26.70;;;17.30;99.90;;;;;;5058114;27;20256;-72
2023/05/26 08:21:02;;;;;;;50.60;27.87;;;17.20;99.90;;;;;;5046073;28;20280;-73
2023/05/26 08:23:49;;;;;;;46.17;28.17;;;17.10;99.90;;;;;;5044741;28;20213;-72
2023/05/26 08:26:36;;;;;;;47.67;27.77;;;17.00;99.90;;;;;;5057865;27;20238;-72
2023/05/26 08:29:25;;;;;;;47.50;28.53;;;17.00;99.90;;;;;;5060372;27;20614;-72
2023/05/26 08:32:12;;;;;;;46.43;27.40;;;17.10;99.90;;;;;;5079182;27;20227;-73
2023/05/26 08:34:59;;;;;;;47.33;26.90;;;17.20;99.90;;;;;;5062678;27;20218;-72
2023/05/26 08:37:46;;;;;;;43.60;26.90;;;17.50;99.90;;;;;;5051652;27;20209;-73
2023/05/26 08:40:34;;;;;;;46.43;26.57;;;17.90;99.90;;;;;;5055271;27;20222;-73
2023/05/26 08:43:23;;;;;;;46.67;27.23;;;17.40;99.90;;;;;;5053522;27;20688;-72
2023/05/26 08:46:12;;;;;;;40.43;24.70;;;17.50;99.90;;;;;;5055788;27;20268;-73
2023/05/26 08:48:59;;;;;;;41.17;24.40;;;18.00;99.90;;;;;;5054385;27;20659;-72
2023/05/26 08:51:52;;;;;;;41.80;24.13;;;18.70;99.90;;;;;;5059502;27;20222;-72
2023/05/26 08:54:40;;;;;;;36.93;21.83;;;19.50;99.90;;;;;;5058641;27;20196;-72
2023/05/26 08:57:29;;;;;;;41.93;25.10;;;20.00;99.90;;;;;;5052531;27;20212;-72
2023/05/26 09:00:17;;;;;;;39.07;20.27;;;20.50;99.90;;;;;;5046998;27;20197;-73
2023/05/26 09:03:06;;;;;;;29.97;18.70;;;20.60;99.90;;;;;;5068922;27;20205;-73
2023/05/26 09:05:53;;;;;;;26.83;16.50;;;20.90;99.90;;;;;;5055886;27;20205;-74
2023/05/26 09:08:40;;;;;;;29.13;18.20;;;20.40;99.90;;;;;;5058817;27;20291;-73
2023/05/26 09:11:28;;;;;;;32.17;21.20;;;20.20;99.90;;;;;;5070814;27;20224;-74
2023/05/26 09:14:18;;;;;;;37.17;22.03;;;20.00;99.90;;;;;;5095961;27;20660;-73
2023/05/26 09:17:05;;;;;;;35.37;20.13;;;19.90;99.90;;;;;;5075435;27;20232;-73
2023/05/26 09:19:54;;;;;;;29.53;19.50;;;19.60;99.90;;;;;;5080578;27;20205;-73
2023/05/26 09:22:41;;;;;;;30.77;19.20;;;20.00;99.90;;;;;;5053631;27;20197;-74
2023/05/26 09:25:31;;;;;;;35.17;20.50;;;20.10;99.90;;;;;;5058040;27;20231;-72
2023/05/26 09:28:20;;;;;;;30.33;18.60;;;20.10;99.90;;;;;;5044654;27;20205;-74
2023/05/26 09:31:10;;;;;;;32.90;20.63;;;19.90;99.90;;;;;;5052655;27;20634;-73
2023/05/26 09:33:57;;;;;;;33.70;21.87;;;20.20;99.90;;;;;;5052150;27;20205;-73
2023/05/26 09:36:45;;;;;;;31.17;19.67;;;19.90;99.90;;;;;;5050966;27;20201;-73
2023/05/26 09:39:33;;;;;;;27.77;18.40;;;20.10;99.90;;;;;;5055496;27;20197;-72
2023/05/26 09:42:20;;;;;;;23.50;14.30;;;20.20;99.90;;;;;;5044682;27;20197;-73
2023/05/26 09:45:07;;;;;;;21.20;11.97;;;19.60;99.90;;;;;;5051868;27;20695;-73
2023/05/26 09:47:56;;;;;;;17.20;9.53;;;19.70;99.90;;;;;;5051432;27;20205;-74
2023/05/26 09:50:43;;;;;;;18.93;9.40;;;19.70;99.90;;;;;;5044906;28;20201;-72
2023/05/26 09:53:32;;;;;;;16.70;9.20;;;19.60;99.90;;;;;;5048310;28;20266;-74
2023/05/26 09:56:19;;;;;;;14.57;8.63;;;19.60;99.90;;;;;;5058459;28;20623;-73
2023/05/26 09:59:06;;;;;;;11.97;7.50;;;19.50;99.90;;;;;;5044421;28;20205;-73
2023/05/26 10:01:53;;;;;;;11.97;7.70;;;19.30;99.90;;;;;;5065530;27;20598;-74
2023/05/26 10:04:41;;;;;;;16.77;7.90;;;19.10;99.90;;;;;;5050543;27;20698;-73
2023/05/26 10:07:28;;;;;;;12.20;7.70;;;19.00;99.90;;;;;;5072325;27;20205;-74
2023/05/26 10:10:16;;;;;;;10.83;7.57;;;19.00;99.90;;;;;;5077821;27;20713;-73
2023/05/26 10:13:05;;;;;;;16.17;7.80;;;19.00;99.90;;;;;;5051126;27;20311;-73
2023/05/26 10:15:52;;;;;;;20.73;8.70;;;18.90;99.90;;;;;;5066603;27;20208;-74
2023/05/26 10:18:39;;;;;;;16.47;10.00;;;18.80;99.90;;;;;;5059164;27;20197;-73
2023/05/26 10:21:28;;;;;;;11.67;8.97;;;18.90;99.90;;;;;;5050111;27;20202;-73
2023/05/26 10:24:17;;;;;;;14.07;9.07;;;19.10;99.90;;;;;;5054522;27;20331;-74
2023/05/26 10:27:09;;;;;;;14.27;7.73;;;19.20;99.90;;;;;;5138605;27;20205;-73
2023/05/26 10:30:01;;;;;;;15.93;8.30;;;19.30;99.90;;;;;;5138297;27;20739;-73
2023/05/26 10:32:49;;;;;;;19.47;8.27;;;19.30;99.90;;;;;;5133758;27;20215;-73
2023/05/26 10:35:36;;;;;;;12.60;7.50;;;19.30;99.90;;;;;;5128623;27;20650;-73
2023/05/26 10:38:27;;;;;;;12.20;7.73;;;19.40;99.90;;;;;;5138144;27;20289;-74
2023/05/26 10:41:29;;;;;;;9.30;6.77;;;19.30;99.90;;;;;;5136964;27;20195;-74
2023/05/26 10:44:41;;;;;;;13.43;7.30;;;19.30;99.90;;;;;;5133867;27;20209;-74
2023/05/26 10:47:30;;;;;;;13.93;6.93;;;19.60;99.90;;;;;;5129724;27;20331;-74
2023/05/26 10:50:17;;;;;;;10.57;6.90;;;19.50;99.90;;;;;;5125237;27;20604;-74
2023/05/26 10:53:05;;;;;;;13.37;6.97;;;19.70;99.90;;;;;;5129500;27;20334;-74
2023/05/26 10:55:53;;;;;;;9.80;6.50;;;19.70;99.90;;;;;;5130361;27;20673;-73
2023/05/26 10:58:42;;;;;;;11.27;6.83;;;19.80;99.90;;;;;;5134676;27;20745;-74
2023/05/26 11:01:32;;;;;;;12.33;6.70;;;20.00;99.90;;;;;;5139484;27;20671;-73
2023/05/26 11:04:21;;;;;;;9.97;6.80;;;20.40;99.90;;;;;;5131404;27;20442;-74
2023/05/26 11:07:15;;;;;;;11.40;6.73;;;20.70;99.90;;;;;;5128849;27;20579;-74
2023/05/26 11:10:05;;;;;;;14.43;6.50;;;20.90;99.90;;;;;;5131704;27;20199;-74
2023/05/26 11:12:54;;;;;;;9.50;6.47;;;20.90;99.90;;;;;;5130809;27;20218;-73
2023/05/26 11:15:41;;;;;;;13.30;6.60;;;20.90;99.90;;;;;;5131361;27;20191;-74
2023/05/26 11:18:30;;;;;;;11.20;6.87;;;20.90;99.90;;;;;;5134350;27;20252;-74
2023/05/26 11:21:18;;;;;;;12.27;6.37;;;21.00;99.90;;;;;;5135862;27;20206;-73
2023/05/26 11:24:06;;;;;;;10.97;6.17;;;21.10;99.90;;;;;;5131313;27;20204;-73
2023/05/26 11:26:53;;;;;;;9.80;6.03;;;21.20;99.90;;;;;;5053071;27;20217;-73
2023/05/26 11:29:40;;;;;;;11.07;5.93;;;21.10;99.90;;;;;;5033243;27;20819;-73
2023/05/26 11:32:28;;;;;;;9.70;5.83;;;21.20;99.90;;;;;;5031120;28;20217;-73
2023/05/26 11:35:23;;;;;;;9.03;6.20;;;21.10;99.90;;;;;;5031582;27;20210;-73
2023/05/26 11:38:10;;;;;;;9.47;6.23;;;21.00;99.90;;;;;;5030055;27;20205;-74
2023/05/26 11:40:57;;;;;;;10.03;6.53;;;20.70;99.90;;;;;;5022083;27;20323;-73
2023/05/26 11:43:45;;;;;;;8.77;6.23;;;20.70;99.90;;;;;;5028392;28;20205;-73
2023/05/26 11:46:33;;;;;;;10.27;6.67;;;20.80;99.90;;;;;;5030141;28;20194;-73
2023/05/26 11:49:20;;;;;;;11.77;7.20;;;21.00;99.90;;;;;;5033694;27;20194;-73
2023/05/26 11:52:09;;;;;;;11.03;6.43;;;20.80;99.90;;;;;;5027392;27;20843;-73
2023/05/26 11:54:57;;;;;;;13.63;7.60;;;20.70;99.90;;;;;;5032193;27;20201;-73
2023/05/26 11:57:45;;;;;;;16.17;7.93;;;20.60;99.90;;;;;;5028736;28;20210;-73
2023/05/26 12:00:36;;;;;;;10.30;7.40;;;20.50;99.90;;;;;;5031164;27;20598;-73
2023/05/26 12:03:23;;;;;;;14.97;8.17;;;20.50;99.90;;;;;;5033348;28;20648;-73
2023/05/26 12:06:15;;;;;;;12.53;8.93;;;20.40;99.90;;;;;;5033266;28;20198;-73
2023/05/26 12:09:06;;;;;;;11.13;8.87;;;20.40;99.90;;;;;;5028629;28;20622;-74
2023/05/26 12:11:53;;;;;;;14.83;9.23;;;20.50;99.90;;;;;;5034670;28;20581;-73
2023/05/26 12:14:40;;;;;;;12.90;9.40;;;20.60;99.90;;;;;;5029701;27;20336;-73
2023/05/26 12:17:28;;;;;;;11.80;9.40;;;20.70;99.90;;;;;;5030949;27;20669;-73
2023/05/26 12:20:16;;;;;;;13.67;9.07;;;20.90;99.90;;;;;;5040237;27;20453;-74
2023/05/26 12:23:03;;;;;;;17.27;8.17;;;21.80;99.90;;;;;;5026564;27;20229;-73
2023/05/26 12:25:52;;;;;;;13.13;8.93;;;22.00;99.90;;;;;;5041684;27;20241;-73
2023/05/26 12:28:40;;;;;;;13.57;7.90;;;22.30;99.90;;;;;;5048533;27;20245;-73
2023/05/26 12:31:44;;;;;;;13.23;7.70;;;22.50;99.90;;;;;;5047865;27;20306;-72
2023/05/26 12:34:31;;;;;;;18.83;7.27;;;22.50;99.90;;;;;;5043928;27;20706;-72
2023/05/26 12:37:18;;;;;;;16.57;6.60;;;22.30;99.90;;;;;;5051835;28;20197;-73
2023/05/26 12:40:06;;;;;;;13.73;6.80;;;21.90;99.90;;;;;;5045667;27;20200;-73
2023/05/26 12:42:55;;;;;;;13.93;6.50;;;21.90;99.90;;;;;;5053117;27;20194;-73
2023/05/26 12:45:42;;;;;;;12.53;6.50;;;22.20;99.90;;;;;;5059745;27;20529;-73
2023/05/26 12:48:29;;;;;;;9.40;5.83;;;22.40;99.90;;;;;;5053069;27;20193;-73
2023/05/26 12:51:17;;;;;;;10.87;6.10;;;22.60;99.90;;;;;;5050000;27;21552;-73
2023/05/26 12:54:05;;;;;;;9.83;6.60;;;23.00;99.90;;;;;;5047729;28;20304;-74
2023/05/26 12:56:52;;;;;;;8.00;5.63;;;22.80;99.90;;;;;;5053873;28;20690;-73
2023/05/26 12:59:41;;;;;;;9.53;5.80;;;23.00;99.90;;;;;;5053368;27;20704;-73
2023/05/26 13:02:29;;;;;;;12.30;5.90;;;23.10;99.90;;;;;;5052218;28;20866;-73
2023/05/26 13:05:18;;;;;;;11.03;5.97;;;22.90;99.90;;;;;;5051495;27;20647;-73
2023/05/26 13:08:05;;;;;;;9.33;5.60;;;22.90;99.90;;;;;;5049969;27;20687;-74
2023/05/26 13:10:52;;;;;;;9.47;5.33;;;22.80;99.90;;;;;;5041266;28;20231;-73
2023/05/26 13:13:40;;;;;;;8.40;5.17;;;23.00;99.90;;;;;;5049717;28;20957;-74
2023/05/26 13:16:28;;;;;;;12.87;5.83;;;22.50;99.90;;;;;;5047002;27;20213;-74
2023/05/26 13:19:16;;;;;;;15.17;5.33;;;22.50;99.90;;;;;;5052448;27;20291;-73
2023/05/26 13:22:04;;;;;;;12.30;5.73;;;22.00;99.90;;;;;;5045669;27;20685;-73
2023/05/26 13:24:52;;;;;;;13.73;6.00;;;21.80;99.90;;;;;;5051249;27;20244;-73
2023/05/26 13:27:39;;;;;;;12.13;5.80;;;21.70;99.90;;;;;;5042524;27;20231;-74
2023/05/26 13:30:27;;;;;;;12.13;5.77;;;21.70;99.90;;;;;;5048223;27;20208;-74
2023/05/26 13:33:15;;;;;;;9.80;5.27;;;21.60;99.90;;;;;;5056055;28;20221;-73
2023/05/26 13:36:03;;;;;;;11.60;5.90;;;21.60;99.90;;;;;;5047309;27;20209;-74
2023/05/26 13:38:50;;;;;;;15.73;5.83;;;21.50;99.90;;;;;;5044122;28;20220;-74
2023/05/26 13:41:37;;;;;;;14.13;5.70;;;21.10;99.90;;;;;;5044574;27;20193;-74
2023/05/26 13:44:24;;;;;;;10.47;5.47;;;21.00;99.90;;;;;;5049094;28;20220;-74
2023/05/26 13:47:12;;;;;;;10.13;5.20;;;20.70;99.90;;;;;;5054626;27;20208;-73
2023/05/26 13:50:00;;;;;;;10.27;5.60;;;20.60;99.90;;;;;;5048195;27;20635;-73
2023/05/26 13:52:47;;;;;;;8.27;5.03;;;20.70;99.90;;;;;;5054029;27;20230;-73
2023/05/26 13:55:35;;;;;;;11.07;5.13;;;20.70;99.90;;;;;;5079562;27;20193;-74
2023/05/26 13:58:22;;;;;;;10.50;5.10;;;20.50;99.90;;;;;;5065968;27;20219;-75
2023/05/26 14:01:09;;;;;;;10.77;4.97;;;20.40;99.90;;;;;;5066740;27;20263;-73
2023/05/26 14:03:57;;;;;;;10.50;4.97;;;20.60;99.90;;;;;;5060141;27;20194;-73
2023/05/26 14:06:46;;;;;;;9.63;4.80;;;20.90;99.90;;;;;;5086607;27;20212;-74
2023/05/26 14:09:33;;;;;;;12.10;5.27;;;21.00;99.90;;;;;;5089763;27;20592;-74
2023/05/26 14:12:20;;;;;;;13.57;5.47;;;21.30;99.90;;;;;;5081986;27;20249;-73
2023/05/26 14:15:08;;;;;;;10.87;4.70;;;21.50;99.90;;;;;;5055265;27;20208;-73